sensor_id;sensor_type;location;lat;lon;timestamp;temperature;humidity
22925;DHT22;11628;51.072;3.712;2022-07-22T00:01:22;17.60;99.90
22925;DHT22;11628;51.072;3.712;2022-07-22T00:03:48;17.60;99.90
22925;DHT22;11628;51.072;3.712;2022-07-22T00:06:14;17.60;99.90
22925;DHT22;11628;51.072;3.712;2022-07-22T00:08:39;17.60;99.90
22925;DHT22;11628;51.072;3.712;2022-07-22T00:11:05;17.60;99.90
22925;DHT22;11628;51.072;3.712;2022-07-22T00:13:31;17.60;99.90
22925;DHT22;11628;51.072;3.712;2022-07-22T00:15:57;17.60;99.90
22925;DHT22;11628;51.072;3.712;2022-07-22T00:18:23;17.60;99.90
22925;DHT22;11628;51.072;3.712;2022-07-22T00:20:49;17.70;99.90
22925;DHT22;11628;51.072;3.712;2022-07-22T00:23:15;17.70;99.90
22925;DHT22;11628;51.072;3.712;2022-07-22T00:25:41;17.70;99.90
22925;DHT22;11628;51.072;3.712;2022-07-22T00:28:08;17.70;99.90
22925;DHT22;11628;51.072;3.712;2022-07-22T00:30:33;17.70;99.90
22925;DHT22;11628;51.072;3.712;2022-07-22T00:32:59;17.70;99.90
22925;DHT22;11628;51.072;3.712;2022-07-22T00:35:25;17.70;99.90
22925;DHT22;11628;51.072;3.712;2022-07-22T00:37:51;17.70;99.90
22925;DHT22;11628;51.072;3.712;2022-07-22T00:40:17;17.70;99.90
22925;DHT22;11628;51.072;3.712;2022-07-22T00:42:42;17.80;99.90
22925;DHT22;11628;51.072;3.712;2022-07-22T00:45:08;17.90;99.90
22925;DHT22;11628;51.072;3.712;2022-07-22T00:47:34;17.90;99.90
22925;DHT22;11628;51.072;3.712;2022-07-22T00:50:00;17.90;99.90
22925;DHT22;11628;51.072;3.712;2022-07-22T00:52:26;17.90;99.90
22925;DHT22;11628;51.072;3.712;2022-07-22T00:54:52;17.90;99.90
22925;DHT22;11628;51.072;3.712;2022-07-22T00:57:18;17.90;99.90
22925;DHT22;11628;51.072;3.712;2022-07-22T00:59:44;17.90;99.90
22925;DHT22;11628;51.072;3.712;2022-07-22T01:02:10;17.90;99.90
22925;DHT22;11628;51.072;3.712;2022-07-22T01:04:36;17.90;99.90
22925;DHT22;11628;51.072;3.712;2022-07-22T01:07:03;17.90;99.90
22925;DHT22;11628;51.072;3.712;2022-07-22T01:09:29;17.90;99.90
22925;DHT22;11628;51.072;3.712;2022-07-22T01:11:54;17.90;99.90
22925;DHT22;11628;51.072;3.712;2022-07-22T01:14:20;17.90;99.90
22925;DHT22;11628;51.072;3.712;2022-07-22T01:16:46;17.80;99.90
22925;DHT22;11628;51.072;3.712;2022-07-22T01:19:12;17.80;99.90
22925;DHT22;11628;51.072;3.712;2022-07-22T01:21:37;17.80;99.90
22925;DHT22;11628;51.072;3.712;2022-07-22T01:24:04;17.70;99.90
22925;DHT22;11628;51.072;3.712;2022-07-22T01:26:30;17.70;99.90
22925;DHT22;11628;51.072;3.712;2022-07-22T01:28:59;17.60;99.90
22925;DHT22;11628;51.072;3.712;2022-07-22T01:31:24;17.60;99.90
22925;DHT22;11628;51.072;3.712;2022-07-22T01:33:50;17.50;99.90
22925;DHT22;11628;51.072;3.712;2022-07-22T01:36:16;17.40;99.90
22925;DHT22;11628;51.072;3.712;2022-07-22T01:38:41;17.40;99.90
22925;DHT22;11628;51.072;3.712;2022-07-22T01:41:07;17.40;99.90
22925;DHT22;11628;51.072;3.712;2022-07-22T01:43:33;17.40;99.90
22925;DHT22;11628;51.072;3.712;2022-07-22T01:45:59;17.30;99.90
22925;DHT22;11628;51.072;3.712;2022-07-22T01:48:25;17.30;99.90
22925;DHT22;11628;51.072;3.712;2022-07-22T01:50:51;17.30;99.90
22925;DHT22;11628;51.072;3.712;2022-07-22T01:53:17;17.30;99.90
22925;DHT22;11628;51.072;3.712;2022-07-22T01:55:42;17.20;99.90
22925;DHT22;11628;51.072;3.712;2022-07-22T01:58:08;17.30;99.90
22925;DHT22;11628;51.072;3.712;2022-07-22T02:00:34;17.20;99.90
22925;DHT22;11628;51.072;3.712;2022-07-22T02:03:00;17.20;99.90
22925;DHT22;11628;51.072;3.712;2022-07-22T02:05:26;17.30;99.90
22925;DHT22;11628;51.072;3.712;2022-07-22T02:07:52;17.20;99.90
22925;DHT22;11628;51.072;3.712;2022-07-22T02:10:18;17.20;99.90
22925;DHT22;11628;51.072;3.712;2022-07-22T02:12:43;17.20;99.90
22925;DHT22;11628;51.072;3.712;2022-07-22T02:15:09;17.30;99.90
22925;DHT22;11628;51.072;3.712;2022-07-22T02:17:36;17.20;99.90
22925;DHT22;11628;51.072;3.712;2022-07-22T02:20:03;17.20;99.90
22925;DHT22;11628;51.072;3.712;2022-07-22T02:22:28;17.10;99.90
22925;DHT22;11628;51.072;3.712;2022-07-22T02:24:55;17.10;99.90
22925;DHT22;11628;51.072;3.712;2022-07-22T02:27:21;17.10;99.90
22925;DHT22;11628;51.072;3.712;2022-07-22T02:29:46;17.20;99.90
22925;DHT22;11628;51.072;3.712;2022-07-22T02:32:12;17.20;99.90
22925;DHT22;11628;51.072;3.712;2022-07-22T02:34:38;17.20;99.90
22925;DHT22;11628;51.072;3.712;2022-07-22T02:37:03;17.20;99.90
22925;DHT22;11628;51.072;3.712;2022-07-22T02:39:29;17.10;99.90
22925;DHT22;11628;51.072;3.712;2022-07-22T02:41:55;17.10;99.90
22925;DHT22;11628;51.072;3.712;2022-07-22T02:44:20;17.00;99.90
22925;DHT22;11628;51.072;3.712;2022-07-22T02:46:46;17.00;99.90
22925;DHT22;11628;51.072;3.712;2022-07-22T02:49:12;16.90;99.90
22925;DHT22;11628;51.072;3.712;2022-07-22T02:51:38;16.90;99.90
22925;DHT22;11628;51.072;3.712;2022-07-22T02:54:05;16.90;99.90
22925;DHT22;11628;51.072;3.712;2022-07-22T02:56:31;16.90;99.90
22925;DHT22;11628;51.072;3.712;2022-07-22T02:58:57;16.90;99.90
22925;DHT22;11628;51.072;3.712;2022-07-22T03:01:22;16.90;99.90
22925;DHT22;11628;51.072;3.712;2022-07-22T03:03:48;16.80;99.90
22925;DHT22;11628;51.072;3.712;2022-07-22T03:06:14;16.80;99.90
22925;DHT22;11628;51.072;3.712;2022-07-22T03:08:40;16.80;99.90
22925;DHT22;11628;51.072;3.712;2022-07-22T03:11:06;16.80;99.90
22925;DHT22;11628;51.072;3.712;2022-07-22T03:13:32;16.90;99.90
22925;DHT22;11628;51.072;3.712;2022-07-22T03:15:59;16.90;99.90
22925;DHT22;11628;51.072;3.712;2022-07-22T03:18:24;16.90;99.90
22925;DHT22;11628;51.072;3.712;2022-07-22T03:20:50;16.90;99.90
22925;DHT22;11628;51.072;3.712;2022-07-22T03:23:16;16.90;99.90
22925;DHT22;11628;51.072;3.712;2022-07-22T03:25:41;17.00;99.90
22925;DHT22;11628;51.072;3.712;2022-07-22T03:28:07;17.00;99.90
22925;DHT22;11628;51.072;3.712;2022-07-22T03:30:33;16.90;99.90
22925;DHT22;11628;51.072;3.712;2022-07-22T03:32:59;17.00;99.90
22925;DHT22;11628;51.072;3.712;2022-07-22T03:35:25;17.00;99.90
22925;DHT22;11628;51.072;3.712;2022-07-22T03:37:50;17.00;99.90
22925;DHT22;11628;51.072;3.712;2022-07-22T03:40:16;17.10;99.90
22925;DHT22;11628;51.072;3.712;2022-07-22T03:42:42;17.10;99.90
22925;DHT22;11628;51.072;3.712;2022-07-22T03:45:09;17.10;99.90
22925;DHT22;11628;51.072;3.712;2022-07-22T03:47:35;17.20;99.90
22925;DHT22;11628;51.072;3.712;2022-07-22T03:50:00;17.30;99.90
22925;DHT22;11628;51.072;3.712;2022-07-22T03:52:28;17.30;99.90
22925;DHT22;11628;51.072;3.712;2022-07-22T03:54:54;17.30;99.90
22925;DHT22;11628;51.072;3.712;2022-07-22T03:57:20;17.30;99.90
22925;DHT22;11628;51.072;3.712;2022-07-22T03:59:46;17.30;99.90
22925;DHT22;11628;51.072;3.712;2022-07-22T04:02:12;17.40;99.90
22925;DHT22;11628;51.072;3.712;2022-07-22T04:04:38;17.40;99.90
22925;DHT22;11628;51.072;3.712;2022-07-22T04:07:03;17.40;99.90
22925;DHT22;11628;51.072;3.712;2022-07-22T04:09:29;17.40;99.90
22925;DHT22;11628;51.072;3.712;2022-07-22T04:11:55;17.50;99.90
22925;DHT22;11628;51.072;3.712;2022-07-22T04:14:20;17.50;99.90
22925;DHT22;11628;51.072;3.712;2022-07-22T04:16:46;17.50;99.90
22925;DHT22;11628;51.072;3.712;2022-07-22T04:19:13;17.50;99.90
22925;DHT22;11628;51.072;3.712;2022-07-22T04:21:39;17.50;99.90
22925;DHT22;11628;51.072;3.712;2022-07-22T04:24:05;17.50;99.90
22925;DHT22;11628;51.072;3.712;2022-07-22T04:26:32;17.40;99.90
22925;DHT22;11628;51.072;3.712;2022-07-22T04:28:59;17.50;99.90
22925;DHT22;11628;51.072;3.712;2022-07-22T04:31:25;17.50;99.90
22925;DHT22;11628;51.072;3.712;2022-07-22T04:33:50;17.60;99.90
22925;DHT22;11628;51.072;3.712;2022-07-22T04:36:16;17.70;99.90
22925;DHT22;11628;51.072;3.712;2022-07-22T04:38:42;17.90;99.90
22925;DHT22;11628;51.072;3.712;2022-07-22T04:41:07;18.00;99.90
22925;DHT22;11628;51.072;3.712;2022-07-22T04:43:33;18.10;99.90
22925;DHT22;11628;51.072;3.712;2022-07-22T04:45:59;18.10;99.90
22925;DHT22;11628;51.072;3.712;2022-07-22T04:48:25;18.20;99.90
22925;DHT22;11628;51.072;3.712;2022-07-22T04:50:50;18.40;99.90
22925;DHT22;11628;51.072;3.712;2022-07-22T04:53:16;18.50;99.90
22925;DHT22;11628;51.072;3.712;2022-07-22T04:55:42;18.50;99.90
22925;DHT22;11628;51.072;3.712;2022-07-22T04:58:07;18.60;99.90
22925;DHT22;11628;51.072;3.712;2022-07-22T05:00:33;18.60;99.90
22925;DHT22;11628;51.072;3.712;2022-07-22T05:02:59;18.70;99.90
22925;DHT22;11628;51.072;3.712;2022-07-22T05:05:24;18.80;99.90
22925;DHT22;11628;51.072;3.712;2022-07-22T05:07:50;19.00;99.90
22925;DHT22;11628;51.072;3.712;2022-07-22T05:10:16;19.10;99.90
22925;DHT22;11628;51.072;3.712;2022-07-22T05:12:42;19.10;99.90
22925;DHT22;11628;51.072;3.712;2022-07-22T05:15:08;19.20;99.90
22925;DHT22;11628;51.072;3.712;2022-07-22T05:17:34;19.20;99.90
22925;DHT22;11628;51.072;3.712;2022-07-22T05:20:02;19.20;99.90
22925;DHT22;11628;51.072;3.712;2022-07-22T05:22:28;19.30;99.90
22925;DHT22;11628;51.072;3.712;2022-07-22T05:24:54;19.30;99.90
22925;DHT22;11628;51.072;3.712;2022-07-22T05:27:19;19.40;99.90
22925;DHT22;11628;51.072;3.712;2022-07-22T05:29:45;19.50;99.90
22925;DHT22;11628;51.072;3.712;2022-07-22T05:32:11;19.60;99.90
22925;DHT22;11628;51.072;3.712;2022-07-22T05:34:37;19.60;99.90
22925;DHT22;11628;51.072;3.712;2022-07-22T05:37:02;19.70;99.90
22925;DHT22;11628;51.072;3.712;2022-07-22T05:39:28;19.70;99.90
22925;DHT22;11628;51.072;3.712;2022-07-22T05:41:54;19.70;99.90
22925;DHT22;11628;51.072;3.712;2022-07-22T05:44:19;19.70;99.90
22925;DHT22;11628;51.072;3.712;2022-07-22T05:46:45;19.70;99.90
22925;DHT22;11628;51.072;3.712;2022-07-22T05:49:11;19.70;99.90
22925;DHT22;11628;51.072;3.712;2022-07-22T05:51:37;19.70;99.90
22925;DHT22;11628;51.072;3.712;2022-07-22T05:54:03;19.80;99.90
22925;DHT22;11628;51.072;3.712;2022-07-22T05:56:29;19.80;99.90
22925;DHT22;11628;51.072;3.712;2022-07-22T05:58:55;19.90;99.90
22925;DHT22;11628;51.072;3.712;2022-07-22T06:01:24;20.00;99.90
22925;DHT22;11628;51.072;3.712;2022-07-22T06:03:50;20.10;99.90
22925;DHT22;11628;51.072;3.712;2022-07-22T06:06:16;20.20;99.90
22925;DHT22;11628;51.072;3.712;2022-07-22T06:08:42;20.30;99.90
22925;DHT22;11628;51.072;3.712;2022-07-22T06:11:07;20.50;99.90
22925;DHT22;11628;51.072;3.712;2022-07-22T06:13:33;20.80;99.90
22925;DHT22;11628;51.072;3.712;2022-07-22T06:16:00;21.00;99.90
22925;DHT22;11628;51.072;3.712;2022-07-22T06:18:25;21.20;99.90
22925;DHT22;11628;51.072;3.712;2022-07-22T06:20:51;21.40;99.90
22925;DHT22;11628;51.072;3.712;2022-07-22T06:23:17;21.50;99.90
22925;DHT22;11628;51.072;3.712;2022-07-22T06:25:43;21.60;99.90
22925;DHT22;11628;51.072;3.712;2022-07-22T06:28:10;21.70;99.90
22925;DHT22;11628;51.072;3.712;2022-07-22T06:30:35;21.80;99.90
22925;DHT22;11628;51.072;3.712;2022-07-22T06:33:02;21.90;99.90
22925;DHT22;11628;51.072;3.712;2022-07-22T06:35:28;22.10;99.90
22925;DHT22;11628;51.072;3.712;2022-07-22T06:37:53;22.20;99.90
22925;DHT22;11628;51.072;3.712;2022-07-22T06:40:20;22.40;99.90
22925;DHT22;11628;51.072;3.712;2022-07-22T06:42:45;22.60;99.90
22925;DHT22;11628;51.072;3.712;2022-07-22T06:45:11;22.70;99.90
22925;DHT22;11628;51.072;3.712;2022-07-22T06:47:37;22.80;99.90
22925;DHT22;11628;51.072;3.712;2022-07-22T06:50:04;22.80;99.90
22925;DHT22;11628;51.072;3.712;2022-07-22T06:52:31;22.80;99.90
22925;DHT22;11628;51.072;3.712;2022-07-22T06:54:56;22.80;99.90
22925;DHT22;11628;51.072;3.712;2022-07-22T06:57:22;23.00;99.90
22925;DHT22;11628;51.072;3.712;2022-07-22T06:59:48;23.40;99.90
22925;DHT22;11628;51.072;3.712;2022-07-22T07:02:16;23.60;99.90
22925;DHT22;11628;51.072;3.712;2022-07-22T07:04:42;23.80;99.90
22925;DHT22;11628;51.072;3.712;2022-07-22T07:07:09;23.80;99.90
22925;DHT22;11628;51.072;3.712;2022-07-22T07:09:35;23.80;99.90
22925;DHT22;11628;51.072;3.712;2022-07-22T07:12:00;23.80;99.90
22925;DHT22;11628;51.072;3.712;2022-07-22T07:14:26;24.00;99.90
22925;DHT22;11628;51.072;3.712;2022-07-22T07:16:52;24.30;99.90
22925;DHT22;11628;51.072;3.712;2022-07-22T07:19:18;24.50;99.90
22925;DHT22;11628;51.072;3.712;2022-07-22T07:21:45;24.70;99.90
22925;DHT22;11628;51.072;3.712;2022-07-22T07:24:11;24.80;99.90
22925;DHT22;11628;51.072;3.712;2022-07-22T07:26:37;25.00;99.90
22925;DHT22;11628;51.072;3.712;2022-07-22T07:29:03;25.00;99.90
22925;DHT22;11628;51.072;3.712;2022-07-22T07:31:28;24.70;99.90
22925;DHT22;11628;51.072;3.712;2022-07-22T07:33:54;25.00;99.90
22925;DHT22;11628;51.072;3.712;2022-07-22T07:36:20;24.90;99.90
22925;DHT22;11628;51.072;3.712;2022-07-22T07:38:46;25.00;99.90
22925;DHT22;11628;51.072;3.712;2022-07-22T07:41:11;24.80;99.90
22925;DHT22;11628;51.072;3.712;2022-07-22T07:43:37;24.50;99.90
22925;DHT22;11628;51.072;3.712;2022-07-22T07:46:03;24.10;99.90
22925;DHT22;11628;51.072;3.712;2022-07-22T07:48:29;24.00;99.90
22925;DHT22;11628;51.072;3.712;2022-07-22T07:50:55;23.60;99.90
22925;DHT22;11628;51.072;3.712;2022-07-22T07:53:21;23.30;99.90
22925;DHT22;11628;51.072;3.712;2022-07-22T07:55:47;22.90;99.90
22925;DHT22;11628;51.072;3.712;2022-07-22T07:58:12;23.50;99.90
22925;DHT22;11628;51.072;3.712;2022-07-22T08:00:38;24.30;99.90
22925;DHT22;11628;51.072;3.712;2022-07-22T08:03:05;24.90;99.90
22925;DHT22;11628;51.072;3.712;2022-07-22T08:05:30;25.10;99.90
22925;DHT22;11628;51.072;3.712;2022-07-22T08:07:56;25.30;99.90
22925;DHT22;11628;51.072;3.712;2022-07-22T08:10:22;25.10;99.90
22925;DHT22;11628;51.072;3.712;2022-07-22T08:12:49;25.50;99.90
22925;DHT22;11628;51.072;3.712;2022-07-22T08:15:15;25.60;99.90
22925;DHT22;11628;51.072;3.712;2022-07-22T08:17:41;25.50;99.90
22925;DHT22;11628;51.072;3.712;2022-07-22T08:20:08;25.70;99.90
22925;DHT22;11628;51.072;3.712;2022-07-22T08:22:33;25.70;99.90
22925;DHT22;11628;51.072;3.712;2022-07-22T08:24:59;25.90;99.90
22925;DHT22;11628;51.072;3.712;2022-07-22T08:27:25;26.20;99.90
22925;DHT22;11628;51.072;3.712;2022-07-22T08:29:51;26.20;99.90
22925;DHT22;11628;51.072;3.712;2022-07-22T08:32:17;26.10;99.90
22925;DHT22;11628;51.072;3.712;2022-07-22T08:34:43;26.30;99.90
22925;DHT22;11628;51.072;3.712;2022-07-22T08:37:08;26.60;99.10
22925;DHT22;11628;51.072;3.712;2022-07-22T08:39:34;26.60;99.20
22925;DHT22;11628;51.072;3.712;2022-07-22T08:42:00;26.70;99.10
22925;DHT22;11628;51.072;3.712;2022-07-22T08:44:30;26.70;98.70
22925;DHT22;11628;51.072;3.712;2022-07-22T08:46:56;26.70;98.60
22925;DHT22;11628;51.072;3.712;2022-07-22T08:49:21;27.20;97.50
22925;DHT22;11628;51.072;3.712;2022-07-22T08:51:47;26.00;98.40
22925;DHT22;11628;51.072;3.712;2022-07-22T08:54:13;25.90;99.00
22925;DHT22;11628;51.072;3.712;2022-07-22T08:56:39;25.50;99.60
22925;DHT22;11628;51.072;3.712;2022-07-22T08:59:05;25.30;99.90
22925;DHT22;11628;51.072;3.712;2022-07-22T09:01:32;26.10;98.90
22925;DHT22;11628;51.072;3.712;2022-07-22T09:03:59;26.70;98.00
22925;DHT22;11628;51.072;3.712;2022-07-22T09:06:26;26.50;98.40
22925;DHT22;11628;51.072;3.712;2022-07-22T09:09:01;26.60;97.90
22925;DHT22;11628;51.072;3.712;2022-07-22T09:11:28;27.30;97.20
22925;DHT22;11628;51.072;3.712;2022-07-22T09:13:56;27.50;96.50
22925;DHT22;11628;51.072;3.712;2022-07-22T09:16:41;26.30;97.40
22925;DHT22;11628;51.072;3.712;2022-07-22T09:19:07;26.20;98.10
22925;DHT22;11628;51.072;3.712;2022-07-22T09:21:35;26.70;97.40
22925;DHT22;11628;51.072;3.712;2022-07-22T09:24:03;27.70;95.80
22925;DHT22;11628;51.072;3.712;2022-07-22T09:26:38;28.70;94.70
22925;DHT22;11628;51.072;3.712;2022-07-22T09:29:05;28.30;94.80
22925;DHT22;11628;51.072;3.712;2022-07-22T09:31:35;27.90;95.30
22925;DHT22;11628;51.072;3.712;2022-07-22T09:34:02;28.90;93.60
22925;DHT22;11628;51.072;3.712;2022-07-22T09:36:29;30.10;91.60
22925;DHT22;11628;51.072;3.712;2022-07-22T09:38:56;30.70;90.30
22925;DHT22;11628;51.072;3.712;2022-07-22T09:41:22;31.10;90.10
22925;DHT22;11628;51.072;3.712;2022-07-22T09:43:48;31.60;88.90
22925;DHT22;11628;51.072;3.712;2022-07-22T09:46:15;32.40;86.40
22925;DHT22;11628;51.072;3.712;2022-07-22T09:48:41;32.70;84.60
22925;DHT22;11628;51.072;3.712;2022-07-22T09:51:08;33.10;83.00
22925;DHT22;11628;51.072;3.712;2022-07-22T09:53:34;32.90;81.80
22925;DHT22;11628;51.072;3.712;2022-07-22T09:56:02;33.10;80.80
22925;DHT22;11628;51.072;3.712;2022-07-22T09:58:28;33.30;79.90
22925;DHT22;11628;51.072;3.712;2022-07-22T10:00:57;34.30;76.40
22925;DHT22;11628;51.072;3.712;2022-07-22T10:03:29;33.50;77.80
22925;DHT22;11628;51.072;3.712;2022-07-22T10:05:57;33.70;77.50
22925;DHT22;11628;51.072;3.712;2022-07-22T10:08:27;34.70;75.20
22925;DHT22;11628;51.072;3.712;2022-07-22T10:10:54;35.30;73.60
22925;DHT22;11628;51.072;3.712;2022-07-22T10:13:23;35.80;72.30
22925;DHT22;11628;51.072;3.712;2022-07-22T10:15:49;34.50;73.10
22925;DHT22;11628;51.072;3.712;2022-07-22T10:18:18;34.00;74.40
22925;DHT22;11628;51.072;3.712;2022-07-22T10:20:45;34.10;74.70
22925;DHT22;11628;51.072;3.712;2022-07-22T10:23:12;33.10;75.00
22925;DHT22;11628;51.072;3.712;2022-07-22T10:28:34;33.40;75.00
22925;DHT22;11628;51.072;3.712;2022-07-22T10:33:45;34.60;72.30
22925;DHT22;11628;51.072;3.712;2022-07-22T10:36:12;34.50;72.10
22925;DHT22;11628;51.072;3.712;2022-07-22T10:39:06;34.40;72.80
22925;DHT22;11628;51.072;3.712;2022-07-22T10:41:38;34.60;71.20
22925;DHT22;11628;51.072;3.712;2022-07-22T10:44:04;33.80;72.70
22925;DHT22;11628;51.072;3.712;2022-07-22T10:46:50;33.60;72.10
22925;DHT22;11628;51.072;3.712;2022-07-22T10:49:18;32.90;74.20
22925;DHT22;11628;51.072;3.712;2022-07-22T10:52:09;32.60;75.70
22925;DHT22;11628;51.072;3.712;2022-07-22T10:55:18;32.60;75.70
22925;DHT22;11628;51.072;3.712;2022-07-22T10:57:44;33.30;73.60
22925;DHT22;11628;51.072;3.712;2022-07-22T11:00:11;33.70;72.20
22925;DHT22;11628;51.072;3.712;2022-07-22T11:02:37;33.60;72.50
22925;DHT22;11628;51.072;3.712;2022-07-22T11:05:04;32.50;74.70
22925;DHT22;11628;51.072;3.712;2022-07-22T11:07:30;32.70;74.40
22925;DHT22;11628;51.072;3.712;2022-07-22T11:10:13;33.20;72.70
22925;DHT22;11628;51.072;3.712;2022-07-22T11:12:41;33.70;72.20
22925;DHT22;11628;51.072;3.712;2022-07-22T11:15:07;33.40;72.00
22925;DHT22;11628;51.072;3.712;2022-07-22T11:17:34;33.00;72.80
22925;DHT22;11628;51.072;3.712;2022-07-22T11:20:05;33.50;72.00
22925;DHT22;11628;51.072;3.712;2022-07-22T11:22:32;33.60;72.60
22925;DHT22;11628;51.072;3.712;2022-07-22T11:25:00;33.80;72.10
22925;DHT22;11628;51.072;3.712;2022-07-22T11:27:27;33.60;72.40
22925;DHT22;11628;51.072;3.712;2022-07-22T11:29:53;34.00;71.40
22925;DHT22;11628;51.072;3.712;2022-07-22T11:32:21;34.20;71.00
22925;DHT22;11628;51.072;3.712;2022-07-22T11:34:47;34.30;70.10
22925;DHT22;11628;51.072;3.712;2022-07-22T11:37:15;34.00;71.30
22925;DHT22;11628;51.072;3.712;2022-07-22T11:39:41;34.20;70.70
22925;DHT22;11628;51.072;3.712;2022-07-22T11:42:07;34.30;69.90
22925;DHT22;11628;51.072;3.712;2022-07-22T11:44:37;34.30;69.50
22925;DHT22;11628;51.072;3.712;2022-07-22T11:47:05;33.90;70.40
22925;DHT22;11628;51.072;3.712;2022-07-22T11:49:32;33.90;70.10
22925;DHT22;11628;51.072;3.712;2022-07-22T11:52:03;33.70;70.60
22925;DHT22;11628;51.072;3.712;2022-07-22T11:54:29;33.70;70.70
22925;DHT22;11628;51.072;3.712;2022-07-22T11:56:55;33.60;70.90
22925;DHT22;11628;51.072;3.712;2022-07-22T11:59:21;33.40;70.80
22925;DHT22;11628;51.072;3.712;2022-07-22T12:01:48;33.00;71.60
22925;DHT22;11628;51.072;3.712;2022-07-22T12:04:17;32.60;72.00
22925;DHT22;11628;51.072;3.712;2022-07-22T12:06:44;32.70;73.00
22925;DHT22;11628;51.072;3.712;2022-07-22T12:09:15;33.00;71.30
22925;DHT22;11628;51.072;3.712;2022-07-22T12:11:44;33.40;70.50
22925;DHT22;11628;51.072;3.712;2022-07-22T12:14:18;34.10;69.90
22925;DHT22;11628;51.072;3.712;2022-07-22T12:19:19;35.00;68.10
22925;DHT22;11628;51.072;3.712;2022-07-22T12:24:39;32.70;72.50
22925;DHT22;11628;51.072;3.712;2022-07-22T12:27:10;32.60;72.30
22925;DHT22;11628;51.072;3.712;2022-07-22T12:32:07;32.40;72.80
22925;DHT22;11628;51.072;3.712;2022-07-22T12:37:22;33.20;71.90
22925;DHT22;11628;51.072;3.712;2022-07-22T12:40:10;33.40;71.20
22925;DHT22;11628;51.072;3.712;2022-07-22T12:42:45;33.60;71.40
22925;DHT22;11628;51.072;3.712;2022-07-22T12:45:16;33.50;70.90
22925;DHT22;11628;51.072;3.712;2022-07-22T12:50:37;33.60;70.90
22925;DHT22;11628;51.072;3.712;2022-07-22T12:53:11;33.20;71.00
22925;DHT22;11628;51.072;3.712;2022-07-22T12:55:49;33.30;72.00
22925;DHT22;11628;51.072;3.712;2022-07-22T12:58:19;33.50;71.40
22925;DHT22;11628;51.072;3.712;2022-07-22T13:00:47;33.50;71.70
22925;DHT22;11628;51.072;3.712;2022-07-22T13:03:13;33.50;72.00
22925;DHT22;11628;51.072;3.712;2022-07-22T13:05:39;33.70;71.20
22925;DHT22;11628;51.072;3.712;2022-07-22T13:08:12;34.20;70.10
22925;DHT22;11628;51.072;3.712;2022-07-22T13:10:38;34.20;70.10
22925;DHT22;11628;51.072;3.712;2022-07-22T13:13:03;34.10;70.10
22925;DHT22;11628;51.072;3.712;2022-07-22T13:15:29;34.20;70.30
22925;DHT22;11628;51.072;3.712;2022-07-22T13:17:55;34.50;69.50
22925;DHT22;11628;51.072;3.712;2022-07-22T13:20:21;34.60;69.20
22925;DHT22;11628;51.072;3.712;2022-07-22T13:22:47;34.40;69.50
22925;DHT22;11628;51.072;3.712;2022-07-22T13:25:13;34.00;70.50
22925;DHT22;11628;51.072;3.712;2022-07-22T13:27:39;33.90;70.50
22925;DHT22;11628;51.072;3.712;2022-07-22T13:30:06;33.80;70.80
22925;DHT22;11628;51.072;3.712;2022-07-22T13:32:32;33.60;70.50
22925;DHT22;11628;51.072;3.712;2022-07-22T13:34:58;32.80;71.90
22925;DHT22;11628;51.072;3.712;2022-07-22T13:37:24;32.30;72.90
22925;DHT22;11628;51.072;3.712;2022-07-22T13:39:50;32.30;73.10
22925;DHT22;11628;51.072;3.712;2022-07-22T13:42:17;32.40;73.20
22925;DHT22;11628;51.072;3.712;2022-07-22T13:44:47;32.70;72.80
22925;DHT22;11628;51.072;3.712;2022-07-22T13:47:13;32.90;72.10
22925;DHT22;11628;51.072;3.712;2022-07-22T13:49:39;32.90;72.60
22925;DHT22;11628;51.072;3.712;2022-07-22T13:52:05;32.90;71.90
22925;DHT22;11628;51.072;3.712;2022-07-22T13:54:32;33.00;71.90
22925;DHT22;11628;51.072;3.712;2022-07-22T13:57:03;33.00;71.80
22925;DHT22;11628;51.072;3.712;2022-07-22T13:59:28;32.80;72.00
22925;DHT22;11628;51.072;3.712;2022-07-22T14:01:55;32.60;72.00
22925;DHT22;11628;51.072;3.712;2022-07-22T14:04:21;32.30;72.70
22925;DHT22;11628;51.072;3.712;2022-07-22T14:06:46;32.00;74.30
22925;DHT22;11628;51.072;3.712;2022-07-22T14:09:12;31.70;74.50
22925;DHT22;11628;51.072;3.712;2022-07-22T14:11:38;31.50;75.20
22925;DHT22;11628;51.072;3.712;2022-07-22T14:14:03;31.20;75.50
22925;DHT22;11628;51.072;3.712;2022-07-22T14:16:31;31.10;75.20
22925;DHT22;11628;51.072;3.712;2022-07-22T14:19:11;31.00;75.80
22925;DHT22;11628;51.072;3.712;2022-07-22T14:21:39;30.90;76.00
22925;DHT22;11628;51.072;3.712;2022-07-22T14:24:06;31.00;75.80
22925;DHT22;11628;51.072;3.712;2022-07-22T14:26:33;30.90;76.10
22925;DHT22;11628;51.072;3.712;2022-07-22T14:28:59;30.80;76.30
22925;DHT22;11628;51.072;3.712;2022-07-22T14:31:25;30.60;77.00
22925;DHT22;11628;51.072;3.712;2022-07-22T14:33:51;30.40;77.70
22925;DHT22;11628;51.072;3.712;2022-07-22T14:36:17;30.10;78.00
22925;DHT22;11628;51.072;3.712;2022-07-22T14:38:43;29.80;79.00
22925;DHT22;11628;51.072;3.712;2022-07-22T14:41:09;29.60;79.40
22925;DHT22;11628;51.072;3.712;2022-07-22T14:43:35;29.40;79.70
22925;DHT22;11628;51.072;3.712;2022-07-22T14:46:01;29.20;80.30
22925;DHT22;11628;51.072;3.712;2022-07-22T14:48:28;29.00;80.60
22925;DHT22;11628;51.072;3.712;2022-07-22T14:50:54;28.60;81.90
22925;DHT22;11628;51.072;3.712;2022-07-22T14:53:19;28.30;81.80
22925;DHT22;11628;51.072;3.712;2022-07-22T14:55:45;28.10;82.70
22925;DHT22;11628;51.072;3.712;2022-07-22T14:58:11;27.70;83.30
22925;DHT22;11628;51.072;3.712;2022-07-22T15:00:37;27.60;84.00
22925;DHT22;11628;51.072;3.712;2022-07-22T15:03:02;27.50;83.90
22925;DHT22;11628;51.072;3.712;2022-07-22T15:05:29;27.50;84.20
22925;DHT22;11628;51.072;3.712;2022-07-22T15:07:55;27.50;84.20
22925;DHT22;11628;51.072;3.712;2022-07-22T15:10:21;27.60;84.50
22925;DHT22;11628;51.072;3.712;2022-07-22T15:12:46;27.60;84.10
22925;DHT22;11628;51.072;3.712;2022-07-22T15:15:12;27.60;84.50
22925;DHT22;11628;51.072;3.712;2022-07-22T15:17:39;27.60;84.20
22925;DHT22;11628;51.072;3.712;2022-07-22T15:20:06;27.60;84.20
22925;DHT22;11628;51.072;3.712;2022-07-22T15:22:33;27.60;84.70
22925;DHT22;11628;51.072;3.712;2022-07-22T15:24:59;27.50;84.60
22925;DHT22;11628;51.072;3.712;2022-07-22T15:27:25;27.30;85.10
22925;DHT22;11628;51.072;3.712;2022-07-22T15:29:50;27.20;84.80
22925;DHT22;11628;51.072;3.712;2022-07-22T15:32:17;26.90;86.00
22925;DHT22;11628;51.072;3.712;2022-07-22T15:34:43;26.70;88.10
22925;DHT22;11628;51.072;3.712;2022-07-22T15:37:09;26.50;88.70
22925;DHT22;11628;51.072;3.712;2022-07-22T15:39:35;26.60;88.00
22925;DHT22;11628;51.072;3.712;2022-07-22T15:42:01;26.60;87.70
22925;DHT22;11628;51.072;3.712;2022-07-22T15:44:27;26.60;89.60
22925;DHT22;11628;51.072;3.712;2022-07-22T15:46:53;26.50;90.40